Time;durP1;ratioP1;P1;durP2;ratioP2;P2;SDS_P1;SDS_P2;PMS_P1;PMS_P2;Temp;Humidity;BMP_temperature;BMP_pressure;BME280_temperature;BME280_humidity;BME280_pressure;Samples;Min_cycle;Max_cycle;Signal;HPM_P1;HPM_P2
2022/07/05 00:00:57;;;;;;;9.00;5.25;;;17.40;99.90;;;;;;5054587;28;20052;-76
2022/07/05 00:03:23;;;;;;;9.68;5.32;;;17.10;99.90;;;;;;5054565;28;20487;-76
2022/07/05 00:05:49;;;;;;;16.08;6.32;;;17.20;99.90;;;;;;5054146;28;20013;-76
2022/07/05 00:08:15;;;;;;;13.40;5.88;;;17.40;99.90;;;;;;5054344;28;20021;-76
2022/07/05 00:10:41;;;;;;;9.32;5.90;;;17.40;99.90;;;;;;5054005;28;20087;-76
2022/07/05 00:13:07;;;;;;;14.00;6.55;;;17.60;99.90;;;;;;5054026;28;20024;-76
2022/07/05 00:15:33;;;;;;;9.23;6.28;;;17.80;99.90;;;;;;5053982;28;20043;-76
2022/07/05 00:17:59;;;;;;;11.93;6.70;;;17.90;99.90;;;;;;5054380;28;20037;-76
2022/07/05 00:20:25;;;;;;;14.88;7.82;;;18.00;99.90;;;;;;5054061;28;20025;-76
2022/07/05 00:22:51;;;;;;;14.13;7.50;;;18.00;99.90;;;;;;5053894;28;20047;-76
2022/07/05 00:25:16;;;;;;;10.95;7.43;;;18.20;99.90;;;;;;5053714;28;20380;-76
2022/07/05 00:27:42;;;;;;;9.35;7.20;;;18.20;99.90;;;;;;5051942;28;20494;-76
2022/07/05 00:30:09;;;;;;;14.43;8.25;;;18.20;99.90;;;;;;5035703;28;20346;-76
2022/07/05 00:32:36;;;;;;;13.00;7.45;;;17.70;99.90;;;;;;5035981;28;20096;-76
2022/07/05 00:35:04;;;;;;;10.85;6.68;;;17.70;99.90;;;;;;5035991;28;20021;-76
2022/07/05 00:37:29;;;;;;;8.65;6.35;;;17.80;99.90;;;;;;5035833;28;20132;-76
2022/07/05 00:39:55;;;;;;;9.18;6.60;;;17.90;99.90;;;;;;5053780;28;20511;-76
2022/07/05 00:42:21;;;;;;;10.02;6.78;;;17.60;99.90;;;;;;5018932;28;20037;-76
2022/07/05 00:44:46;;;;;;;12.90;7.18;;;17.50;99.90;;;;;;5035756;28;20044;-76
2022/07/05 00:47:12;;;;;;;17.58;7.18;;;17.50;99.90;;;;;;5053705;28;20033;-76
2022/07/05 00:49:40;;;;;;;16.30;7.93;;;17.70;99.90;;;;;;5035621;28;20032;-76
2022/07/05 00:52:06;;;;;;;15.45;7.55;;;17.60;99.90;;;;;;5053697;28;20017;-76
2022/07/05 00:54:35;;;;;;;14.77;8.10;;;17.60;99.90;;;;;;5035700;28;20037;-76
2022/07/05 00:57:02;;;;;;;11.55;7.20;;;17.60;99.90;;;;;;5035105;28;20515;-76
2022/07/05 00:59:29;;;;;;;14.85;7.65;;;17.60;99.90;;;;;;5053214;28;20025;-76
2022/07/05 01:01:55;;;;;;;15.50;7.38;;;17.60;99.90;;;;;;5052941;28;20076;-76
2022/07/05 01:04:21;;;;;;;17.17;7.10;;;17.20;99.90;;;;;;5035509;28;20076;-76
2022/07/05 01:06:49;;;;;;;10.05;6.60;;;17.30;99.90;;;;;;5035286;28;20029;-76
2022/07/05 01:09:16;;;;;;;13.77;6.28;;;17.40;99.90;;;;;;5035202;28;20027;-76
2022/07/05 01:11:44;;;;;;;8.23;5.88;;;17.40;99.90;;;;;;5034630;28;20037;-77
2022/07/05 01:14:13;;;;;;;8.70;5.97;;;17.00;99.90;;;;;;5035456;28;20048;-76
2022/07/05 01:16:39;;;;;;;8.40;5.70;;;17.00;99.90;;;;;;5035291;28;20090;-76
2022/07/05 01:19:09;;;;;;;14.15;5.93;;;17.20;99.90;;;;;;5035117;28;20049;-76
2022/07/05 01:21:44;;;;;;;10.40;5.93;;;17.20;99.90;;;;;;5035005;28;20110;-76
2022/07/05 01:24:14;;;;;;;12.07;5.82;;;17.30;99.90;;;;;;5053055;28;20044;-77
2022/07/05 01:26:41;;;;;;;10.10;5.53;;;17.40;99.90;;;;;;5052470;28;20025;-76
2022/07/05 01:29:08;;;;;;;15.02;6.25;;;17.30;99.90;;;;;;5034871;28;20039;-76
2022/07/05 01:31:37;;;;;;;9.60;5.97;;;17.30;99.90;;;;;;5034912;28;20432;-76
2022/07/05 01:34:04;;;;;;;11.05;5.88;;;17.30;99.90;;;;;;5052783;28;20028;-76
2022/07/05 01:36:30;;;;;;;9.68;6.10;;;17.20;99.90;;;;;;5018266;28;20059;-77
2022/07/05 01:38:56;;;;;;;10.23;5.53;;;17.10;99.90;;;;;;5053027;28;20036;-76
2022/07/05 01:41:22;;;;;;;10.35;6.15;;;17.10;99.90;;;;;;5052328;28;20047;-76
2022/07/05 01:43:48;;;;;;;9.93;6.30;;;17.10;99.90;;;;;;5035017;28;20103;-76
2022/07/05 01:46:16;;;;;;;8.48;5.88;;;17.10;99.90;;;;;;5052549;28;20024;-76
2022/07/05 01:48:43;;;;;;;9.05;5.88;;;17.10;99.90;;;;;;5034956;28;20040;-76
2022/07/05 01:51:28;;;;;;;9.85;6.28;;;16.90;99.90;;;;;;5052832;28;20021;-76
2022/07/05 01:53:54;;;;;;;11.88;6.50;;;17.00;99.90;;;;;;5034777;28;20033;-76
2022/07/05 01:56:21;;;;;;;11.98;6.38;;;16.90;99.90;;;;;;5034385;28;20029;-76
2022/07/05 01:58:48;;;;;;;12.80;5.95;;;16.80;99.90;;;;;;5034595;28;20116;-76
2022/07/05 02:01:13;;;;;;;8.35;5.93;;;16.40;99.90;;;;;;5052416;28;20463;-76
2022/07/05 02:03:40;;;;;;;13.63;6.03;;;15.90;99.90;;;;;;5034556;28;20100;-76
2022/07/05 02:06:10;;;;;;;14.40;7.00;;;15.50;99.90;;;;;;5034734;28;20079;-76
2022/07/05 02:08:36;;;;;;;14.77;6.25;;;15.40;99.90;;;;;;5034078;28;20017;-76
2022/07/05 02:11:03;;;;;;;15.43;7.30;;;15.20;99.90;;;;;;5034297;28;20033;-76
2022/07/05 02:13:29;;;;;;;9.48;6.32;;;15.10;99.90;;;;;;5037288;28;20056;-76
2022/07/05 02:15:55;;;;;;;9.73;6.65;;;15.10;99.90;;;;;;5038703;28;20457;-76
2022/07/05 02:18:22;;;;;;;15.73;6.85;;;15.20;99.90;;;;;;5038226;28;20020;-76
2022/07/05 02:20:48;;;;;;;13.20;6.40;;;15.30;99.90;;;;;;5038494;28;20575;-76
2022/07/05 02:23:14;;;;;;;12.15;6.68;;;15.20;99.90;;;;;;5038442;28;20045;-76
2022/07/05 02:25:40;;;;;;;10.20;6.40;;;15.70;99.90;;;;;;5037993;28;20048;-76
2022/07/05 02:28:13;;;;;;;10.43;6.20;;;15.80;99.90;;;;;;5056267;28;20032;-76
2022/07/05 02:30:40;;;;;;;8.48;6.28;;;16.10;99.90;;;;;;5038075;28;20025;-76
2022/07/05 02:33:06;;;;;;;11.68;6.07;;;16.20;99.90;;;;;;5038225;28;20631;-76
2022/07/05 02:35:32;;;;;;;9.95;6.05;;;16.40;99.90;;;;;;5056146;28;20095;-77
2022/07/05 02:37:57;;;;;;;17.38;6.70;;;16.10;99.90;;;;;;5037718;28;20419;-77
2022/07/05 02:40:23;;;;;;;16.80;6.80;;;15.90;99.90;;;;;;5038100;28;20054;-77
2022/07/05 02:42:50;;;;;;;10.07;6.00;;;15.80;99.90;;;;;;5038101;28;20043;-76
2022/07/05 02:45:18;;;;;;;15.20;6.57;;;15.60;99.90;;;;;;5038180;28;20025;-76
2022/07/05 02:47:46;;;;;;;15.57;6.13;;;15.60;99.90;;;;;;5037800;28;20025;-76
2022/07/05 02:50:13;;;;;;;12.77;6.00;;;15.80;99.90;;;;;;5037879;28;20029;-76
2022/07/05 02:52:43;;;;;;;12.43;6.00;;;16.00;99.90;;;;;;5037516;28;20036;-76
2022/07/05 02:55:10;;;;;;;10.68;6.00;;;16.10;99.90;;;;;;5037861;28;20396;-76
2022/07/05 02:57:38;;;;;;;13.43;5.35;;;16.30;99.90;;;;;;5037987;28;20021;-76
2022/07/05 03:00:07;;;;;;;10.50;5.63;;;16.10;99.90;;;;;;5037867;28;20109;-76
2022/07/05 03:02:45;;;;;;;13.05;6.35;;;16.10;99.90;;;;;;5037506;28;20044;-76
2022/07/05 03:05:11;;;;;;;12.18;6.45;;;16.30;99.90;;;;;;5037646;28;20025;-76
2022/07/05 03:07:41;;;;;;;10.88;6.15;;;16.40;99.90;;;;;;5055297;28;20024;-77
2022/07/05 03:10:07;;;;;;;10.80;6.60;;;16.40;99.90;;;;;;5037200;28;20158;-76
2022/07/05 03:12:33;;;;;;;12.18;5.85;;;16.30;99.90;;;;;;5037462;28;20040;-76
2022/07/05 03:14:59;;;;;;;8.70;5.55;;;16.10;99.90;;;;;;5037370;28;20021;-77
2022/07/05 03:17:26;;;;;;;11.30;5.65;;;16.20;99.90;;;;;;5037313;28;20017;-76
2022/07/05 03:19:53;;;;;;;7.45;5.35;;;16.40;99.90;;;;;;5037001;28;20042;-77
2022/07/05 03:22:21;;;;;;;14.18;6.20;;;16.30;99.90;;;;;;5037173;28;20106;-76
2022/07/05 03:24:48;;;;;;;7.60;5.32;;;16.30;99.90;;;;;;5054573;28;20423;-76
2022/07/05 03:27:15;;;;;;;14.32;5.80;;;16.30;99.90;;;;;;5037402;28;20017;-76
2022/07/05 03:29:42;;;;;;;10.65;5.85;;;16.50;99.90;;;;;;5037014;28;20024;-76
2022/07/05 03:32:09;;;;;;;14.02;6.10;;;16.50;99.90;;;;;;5020854;28;20075;-76
2022/07/05 03:34:35;;;;;;;12.35;5.78;;;16.60;99.90;;;;;;5036882;28;20017;-77
2022/07/05 03:37:03;;;;;;;9.18;5.40;;;16.50;99.90;;;;;;5036533;28;20043;-76
2022/07/05 03:39:29;;;;;;;11.02;5.82;;;16.40;99.90;;;;;;5036159;28;20469;-77
2022/07/05 03:41:56;;;;;;;16.85;6.15;;;16.10;99.90;;;;;;5036355;28;20060;-76
2022/07/05 03:44:23;;;;;;;11.05;5.72;;;16.40;99.90;;;;;;5053961;28;20021;-76
2022/07/05 03:46:49;;;;;;;18.42;6.55;;;16.30;99.90;;;;;;5036670;28;20032;-76
2022/07/05 03:49:15;;;;;;;22.17;7.22;;;16.40;99.90;;;;;;5036769;28;20115;-76
2022/07/05 03:51:41;;;;;;;21.85;6.13;;;16.40;99.90;;;;;;5036259;28;20384;-76
2022/07/05 03:54:07;;;;;;;14.80;6.28;;;16.00;99.90;;;;;;5036721;28;20032;-77
2022/07/05 03:56:34;;;;;;;12.10;5.82;;;16.20;99.90;;;;;;5036303;28;20477;-76
2022/07/05 03:59:04;;;;;;;12.82;6.00;;;16.40;99.90;;;;;;5036805;28;20025;-77
2022/07/05 04:01:31;;;;;;;14.43;5.47;;;16.70;99.90;;;;;;5036312;28;20110;-76
2022/07/05 04:03:57;;;;;;;13.95;5.40;;;16.40;99.90;;;;;;5036597;28;20108;-76
2022/07/05 04:06:25;;;;;;;12.02;5.60;;;15.80;99.90;;;;;;5036087;28;20032;-77
2022/07/05 04:08:52;;;;;;;14.23;5.18;;;15.90;99.90;;;;;;5036217;28;20035;-76
2022/07/05 04:11:19;;;;;;;22.63;6.30;;;16.00;99.90;;;;;;5036194;28;20091;-76
2022/07/05 04:13:48;;;;;;;13.63;5.63;;;16.30;99.90;;;;;;5020481;28;20017;-77
2022/07/05 04:16:14;;;;;;;11.38;5.43;;;16.40;99.90;;;;;;5036343;28;20036;-76
2022/07/05 04:18:39;;;;;;;19.90;5.82;;;16.50;99.90;;;;;;5036225;28;20416;-76
2022/07/05 04:21:05;;;;;;;14.38;4.90;;;16.70;99.90;;;;;;5035467;28;20025;-76
2022/07/05 04:23:31;;;;;;;12.25;5.47;;;16.50;99.90;;;;;;5053800;28;20072;-76
2022/07/05 04:25:57;;;;;;;16.10;5.82;;;16.50;99.90;;;;;;5036368;28;20047;-76
2022/07/05 04:28:33;;;;;;;10.80;5.35;;;16.70;99.90;;;;;;5036080;28;20055;-76
2022/07/05 04:31:01;;;;;;;12.57;6.30;;;16.60;99.90;;;;;;5019916;28;20029;-77
2022/07/05 04:33:30;;;;;;;11.13;5.50;;;16.40;99.90;;;;;;5035984;28;20489;-76
2022/07/05 04:35:58;;;;;;;10.40;5.28;;;16.60;99.90;;;;;;5034865;28;20029;-77
2022/07/05 04:38:23;;;;;;;12.90;5.45;;;16.60;99.90;;;;;;5035963;28;20128;-77
2022/07/05 04:40:50;;;;;;;18.08;5.40;;;16.40;99.90;;;;;;5035619;28;20476;-76
2022/07/05 04:43:15;;;;;;;15.95;5.97;;;16.60;99.90;;;;;;5035848;28;20044;-76
2022/07/05 04:45:42;;;;;;;14.68;5.82;;;16.90;99.90;;;;;;5053537;28;20484;-76
2022/07/05 04:48:08;;;;;;;18.92;6.10;;;16.30;99.90;;;;;;5035587;28;20080;-77
2022/07/05 04:50:37;;;;;;;14.35;5.78;;;16.40;99.90;;;;;;5035221;28;20029;-77
2022/07/05 04:53:04;;;;;;;21.48;6.15;;;16.40;99.90;;;;;;5035518;28;20029;-76
2022/07/05 04:55:30;;;;;;;12.95;5.57;;;16.20;99.90;;;;;;5053650;28;20024;-77
2022/07/05 04:57:55;;;;;;;12.48;5.75;;;16.50;99.90;;;;;;5035314;28;20021;-76
2022/07/05 05:00:21;;;;;;;16.52;6.18;;;16.40;99.90;;;;;;5053767;28;20104;-76
2022/07/05 05:02:47;;;;;;;17.48;5.75;;;16.50;99.90;;;;;;5053156;28;20039;-77
2022/07/05 05:05:12;;;;;;;13.93;5.82;;;16.80;99.90;;;;;;5053171;28;20052;-77
2022/07/05 05:07:44;;;;;;;12.45;5.07;;;17.00;99.90;;;;;;5035352;28;20041;-77
2022/07/05 05:10:10;;;;;;;16.55;5.47;;;17.10;99.90;;;;;;5052750;28;20029;-76
2022/07/05 05:12:35;;;;;;;14.20;6.18;;;16.90;99.90;;;;;;5052950;28;20025;-76
2022/07/05 05:15:02;;;;;;;13.77;5.85;;;16.70;99.90;;;;;;5053174;28;20033;-76
2022/07/05 05:17:39;;;;;;;16.92;6.07;;;16.50;99.90;;;;;;5052956;28;20136;-76
2022/07/05 05:20:14;;;;;;;22.58;6.10;;;16.70;99.90;;;;;;5052830;28;20070;-76
2022/07/05 05:22:40;;;;;;;17.48;6.43;;;16.90;99.90;;;;;;5052774;28;20461;-76
2022/07/05 05:25:07;;;;;;;17.48;6.07;;;17.00;99.90;;;;;;5053033;28;20499;-76
2022/07/05 05:27:33;;;;;;;18.92;6.57;;;16.90;99.90;;;;;;5052883;28;20057;-77
2022/07/05 05:29:58;;;;;;;17.48;6.63;;;16.90;99.90;;;;;;5052973;28;20075;-76
2022/07/05 05:32:24;;;;;;;17.85;6.95;;;16.80;99.90;;;;;;5052594;28;20032;-76
2022/07/05 05:34:50;;;;;;;17.83;6.40;;;16.50;99.90;;;;;;5052532;28;20071;-76
2022/07/05 05:37:15;;;;;;;19.90;7.22;;;16.70;99.90;;;;;;5052921;28;20033;-76
2022/07/05 05:39:41;;;;;;;16.55;6.90;;;16.80;99.90;;;;;;5052586;28;20029;-76
2022/07/05 05:42:07;;;;;;;16.45;7.47;;;16.80;99.90;;;;;;5052651;28;20056;-76
2022/07/05 05:44:33;;;;;;;13.30;8.10;;;16.70;99.90;;;;;;5052652;28;20381;-77
2022/07/05 05:46:59;;;;;;;13.35;8.23;;;16.40;99.90;;;;;;5052079;28;20017;-76
2022/07/05 05:49:24;;;;;;;18.13;8.23;;;16.40;99.90;;;;;;5034766;28;20393;-78
2022/07/05 05:51:50;;;;;;;22.70;8.80;;;16.50;99.90;;;;;;5052778;28;20029;-76
2022/07/05 05:54:16;;;;;;;15.43;7.88;;;16.40;99.90;;;;;;5052636;28;20040;-77
2022/07/05 05:56:41;;;;;;;18.63;7.60;;;16.40;99.90;;;;;;5052485;28;20112;-76
2022/07/05 05:59:08;;;;;;;12.10;7.70;;;16.30;99.90;;;;;;5052530;28;20032;-77
2022/07/05 06:01:34;;;;;;;19.35;8.50;;;16.10;99.90;;;;;;5052098;28;20120;-76
2022/07/05 06:03:59;;;;;;;22.58;8.63;;;16.20;99.90;;;;;;5034631;28;20521;-76
2022/07/05 06:06:25;;;;;;;16.58;8.82;;;16.40;99.90;;;;;;5034677;28;20040;-77
2022/07/05 06:08:51;;;;;;;19.27;9.52;;;16.40;99.90;;;;;;5034380;28;20403;-76
2022/07/05 06:11:17;;;;;;;21.77;9.27;;;16.60;99.90;;;;;;5052419;28;20036;-76
2022/07/05 06:13:44;;;;;;;16.98;8.43;;;17.00;99.90;;;;;;5051942;28;20024;-75
2022/07/05 06:16:09;;;;;;;17.77;8.63;;;17.20;99.90;;;;;;5052370;28;20108;-76
2022/07/05 06:18:35;;;;;;;26.10;8.88;;;17.10;99.90;;;;;;5052179;28;20025;-76
2022/07/05 06:21:01;;;;;;;18.95;8.45;;;17.10;99.90;;;;;;5052298;28;20071;-77
2022/07/05 06:23:27;;;;;;;19.80;8.20;;;17.10;99.90;;;;;;5034305;28;20032;-76
2022/07/05 06:25:52;;;;;;;23.38;8.57;;;17.40;99.90;;;;;;5034653;28;20017;-77
2022/07/05 06:28:18;;;;;;;24.83;8.63;;;18.00;99.90;;;;;;5052315;28;20033;-76
2022/07/05 06:30:44;;;;;;;15.82;7.88;;;18.10;99.90;;;;;;5034152;28;20059;-76
2022/07/05 06:33:10;;;;;;;28.80;8.68;;;18.10;99.90;;;;;;5052385;28;20461;-77
2022/07/05 06:35:35;;;;;;;22.33;7.82;;;18.40;99.90;;;;;;5052202;28;20017;-76
2022/07/05 06:38:07;;;;;;;22.98;8.45;;;18.50;99.90;;;;;;5051939;28;20104;-76
2022/07/05 06:40:38;;;;;;;23.13;8.77;;;18.50;99.90;;;;;;5034370;28;20033;-76
2022/07/05 06:43:09;;;;;;;26.40;8.68;;;18.30;99.90;;;;;;5051876;28;20033;-76
2022/07/05 06:45:55;;;;;;;21.65;8.73;;;18.40;99.90;;;;;;5033973;28;20385;-76
2022/07/05 06:48:22;;;;;;;21.23;7.97;;;18.50;99.90;;;;;;5033875;28;20459;-76
2022/07/05 06:50:48;;;;;;;20.90;8.50;;;18.40;99.90;;;;;;5052163;28;20053;-76
2022/07/05 06:53:13;;;;;;;18.70;8.95;;;18.60;99.90;;;;;;5051900;28;20487;-76
2022/07/05 06:55:44;;;;;;;24.27;10.07;;;18.70;99.90;;;;;;5034184;28;20025;-77
2022/07/05 06:58:11;;;;;;;21.90;9.65;;;18.90;99.90;;;;;;5034891;28;20028;-76
2022/07/05 07:00:38;;;;;;;21.33;8.82;;;19.10;99.90;;;;;;5055243;28;20036;-76
2022/07/05 07:03:04;;;;;;;25.00;8.95;;;19.30;99.90;;;;;;5055424;28;20044;-77
2022/07/05 07:05:30;;;;;;;20.20;9.38;;;19.20;99.90;;;;;;5055630;28;20027;-76
2022/07/05 07:10:40;;;;;;;20.45;9.55;;;19.50;99.90;;;;;;5043581;28;20044;-76
2022/07/05 07:13:06;;;;;;;19.50;9.50;;;19.70;99.90;;;;;;5055385;28;20025;-77
2022/07/05 07:15:33;;;;;;;24.58;9.35;;;19.90;99.90;;;;;;5037179;28;20112;-76
2022/07/05 07:17:59;;;;;;;23.40;8.70;;;19.60;99.90;;;;;;5055491;28;20021;-76
2022/07/05 07:20:25;;;;;;;25.00;10.02;;;19.80;99.90;;;;;;5037248;28;20424;-76
2022/07/05 07:22:51;;;;;;;28.67;10.20;;;19.60;99.90;;;;;;5037331;28;20501;-76
2022/07/05 07:25:19;;;;;;;22.35;8.88;;;19.80;99.90;;;;;;5055150;28;20024;-77
2022/07/05 07:27:49;;;;;;;23.95;8.77;;;19.80;99.90;;;;;;5055046;28;20021;-76
2022/07/05 07:30:16;;;;;;;22.40;9.07;;;19.90;99.90;;;;;;5036859;28;20079;-76
2022/07/05 07:32:42;;;;;;;23.83;9.60;;;19.90;99.90;;;;;;5055092;28;20104;-76
2022/07/05 07:35:09;;;;;;;24.73;9.02;;;19.80;99.90;;;;;;5054738;28;20079;-77
2022/07/05 07:37:35;;;;;;;20.35;9.82;;;20.00;99.90;;;;;;5054958;28;20035;-76
2022/07/05 07:40:02;;;;;;;27.88;9.45;;;19.80;99.90;;;;;;5054950;28;20103;-76
2022/07/05 07:42:28;;;;;;;21.33;8.63;;;19.60;99.90;;;;;;5054513;28;20469;-76
2022/07/05 07:44:54;;;;;;;22.25;9.98;;;20.10;99.90;;;;;;5054651;28;20017;-76
2022/07/05 07:47:20;;;;;;;17.42;9.23;;;20.10;99.90;;;;;;5054695;28;20185;-76
2022/07/05 07:49:46;;;;;;;33.00;9.15;;;20.00;99.90;;;;;;5036585;28;20018;-76
2022/07/05 07:52:12;;;;;;;31.83;10.18;;;20.10;99.90;;;;;;5054962;28;20397;-76
2022/07/05 07:54:37;;;;;;;25.10;9.93;;;20.50;99.90;;;;;;5054495;28;20021;-76
2022/07/05 07:57:05;;;;;;;22.20;9.93;;;20.80;99.90;;;;;;5054445;28;20071;-76
2022/07/05 07:59:34;;;;;;;24.30;9.45;;;21.00;99.90;;;;;;5036759;28;20424;-76
2022/07/05 08:02:00;;;;;;;27.15;8.15;;;21.00;99.90;;;;;;5054307;28;20063;-76
2022/07/05 08:04:26;;;;;;;25.67;8.55;;;20.80;99.90;;;;;;5054704;28;20024;-76
2022/07/05 08:06:52;;;;;;;18.25;6.45;;;20.70;99.90;;;;;;5036322;28;20040;-76
2022/07/05 08:09:17;;;;;;;16.00;5.93;;;20.60;99.90;;;;;;5053789;28;20017;-76
2022/07/05 08:11:46;;;;;;;21.95;7.25;;;20.30;99.90;;;;;;5035503;28;20033;-77
2022/07/05 08:14:12;;;;;;;19.45;5.68;;;20.80;99.90;;;;;;5054275;28;20535;-76
2022/07/05 08:16:37;;;;;;;15.93;6.38;;;20.80;99.90;;;;;;5036144;28;20149;-76
2022/07/05 08:21:48;;;;;;;21.17;5.75;;;20.90;99.90;;;;;;5053975;28;20045;-76
2022/07/05 08:24:14;;;;;;;21.30;5.28;;;21.30;99.90;;;;;;5054097;28;20025;-76
2022/07/05 08:26:41;;;;;;;15.45;3.50;;;21.60;99.90;;;;;;5053728;28;20064;-76
2022/07/05 08:29:11;;;;;;;8.32;2.85;;;21.70;99.90;;;;;;5040325;28;20029;-76
2022/07/05 08:31:38;;;;;;;14.48;3.60;;;21.80;99.90;;;;;;5054039;28;20079;-76
2022/07/05 08:34:04;;;;;;;9.43;3.50;;;21.70;99.90;;;;;;5053772;28;20511;-76
2022/07/05 08:36:30;;;;;;;10.95;4.07;;;21.60;99.90;;;;;;5036023;28;20075;-76
2022/07/05 08:38:56;;;;;;;15.15;5.25;;;22.00;99.90;;;;;;5053856;28;20025;-76
2022/07/05 08:41:23;;;;;;;13.45;5.50;;;22.60;99.90;;;;;;5035493;28;20103;-76
2022/07/05 08:43:51;;;;;;;16.70;4.97;;;22.50;99.90;;;;;;5053694;28;20489;-76
2022/07/05 08:46:18;;;;;;;12.20;4.78;;;22.60;99.90;;;;;;5053530;28;20043;-76
2022/07/05 08:48:51;;;;;;;11.30;4.22;;;22.60;99.90;;;;;;5035600;28;20044;-76
2022/07/05 08:51:22;;;;;;;12.68;3.85;;;21.90;99.90;;;;;;5053357;28;20074;-76
2022/07/05 08:53:52;;;;;;;14.87;4.60;;;22.00;99.90;;;;;;5035803;28;20029;-76
2022/07/05 08:56:18;;;;;;;15.00;4.28;;;22.00;99.90;;;;;;5053127;28;20361;-76
2022/07/05 08:58:45;;;;;;;8.30;3.90;;;22.20;99.90;;;;;;5053353;28;20040;-76
2022/07/05 09:01:12;;;;;;;15.45;4.03;;;21.60;99.90;;;;;;5053129;28;20084;-77
2022/07/05 09:03:47;;;;;;;8.85;3.80;;;21.40;99.90;;;;;;5053423;28;20032;-76
2022/07/05 09:06:17;;;;;;;11.52;4.30;;;21.40;99.90;;;;;;5053327;28;20037;-76
2022/07/05 09:08:44;;;;;;;9.20;4.38;;;21.60;99.90;;;;;;5053067;28;20032;-76
2022/07/05 09:11:15;;;;;;;7.32;3.47;;;21.80;99.90;;;;;;5052920;28;20033;-75
2022/07/05 09:13:43;;;;;;;11.07;4.13;;;21.80;99.90;;;;;;5053183;28;20040;-76
2022/07/05 09:16:09;;;;;;;13.38;4.50;;;22.20;99.90;;;;;;5053171;28;20037;-75
2022/07/05 09:18:43;;;;;;;11.52;5.00;;;21.90;99.90;;;;;;5052735;28;20073;-75
2022/07/05 09:21:16;;;;;;;11.88;4.05;;;21.10;99.90;;;;;;5053096;28;20453;-76
2022/07/05 09:23:43;;;;;;;14.45;3.85;;;21.00;99.90;;;;;;5052873;28;20021;-76
2022/07/05 09:26:09;;;;;;;8.27;3.67;;;21.00;99.90;;;;;;5034960;28;20033;-75
2022/07/05 09:28:36;;;;;;;13.85;4.20;;;21.20;99.90;;;;;;5052618;28;20108;-76
2022/07/05 09:31:02;;;;;;;12.00;3.80;;;21.20;99.90;;;;;;5053017;28;20063;-76
2022/07/05 09:33:28;;;;;;;16.92;3.97;;;21.00;99.90;;;;;;5034950;28;20029;-76
2022/07/05 09:35:57;;;;;;;12.93;4.07;;;21.00;99.90;;;;;;5052806;28;20113;-76
2022/07/05 09:38:24;;;;;;;7.95;3.42;;;21.50;99.90;;;;;;5035125;28;20056;-76
2022/07/05 09:40:54;;;;;;;10.07;3.60;;;21.90;99.90;;;;;;5052354;28;20013;-75
2022/07/05 09:43:25;;;;;;;12.30;3.95;;;21.50;99.90;;;;;;5034559;28;20045;-76
2022/07/05 09:45:58;;;;;;;14.80;4.28;;;21.40;99.90;;;;;;5052629;28;20025;-75
2022/07/05 09:48:25;;;;;;;14.40;4.20;;;21.40;99.90;;;;;;5052527;28;20032;-76
2022/07/05 09:50:51;;;;;;;13.30;4.47;;;21.70;99.90;;;;;;5052675;28;20025;-76
2022/07/05 09:53:18;;;;;;;13.68;5.05;;;22.50;99.90;;;;;;5034386;28;20037;-76
2022/07/05 09:56:03;;;;;;;12.85;4.22;;;23.00;99.90;;;;;;5034757;28;20036;-76
2022/07/05 09:58:29;;;;;;;12.80;4.68;;;23.40;99.90;;;;;;5052654;28;20090;-76
2022/07/05 10:00:55;;;;;;;9.65;3.67;;;23.10;99.90;;;;;;5052696;28;20642;-76
2022/07/05 10:03:21;;;;;;;12.93;4.28;;;23.10;99.90;;;;;;5052341;28;20392;-76
2022/07/05 10:05:47;;;;;;;12.38;4.18;;;23.60;99.90;;;;;;5052580;28;20036;-76
2022/07/05 10:08:13;;;;;;;12.07;4.20;;;22.50;99.90;;;;;;5051955;28;20017;-76
2022/07/05 10:10:41;;;;;;;12.63;5.35;;;22.50;99.90;;;;;;5052338;28;20032;-77
2022/07/05 10:13:07;;;;;;;15.27;5.70;;;22.60;99.90;;;;;;5052413;28;20025;-76
2022/07/05 10:15:35;;;;;;;12.73;5.20;;;23.20;99.90;;;;;;5052551;28;20017;-77
2022/07/05 10:18:07;;;;;;;10.02;5.53;;;23.30;99.90;;;;;;5034473;28;20441;-77
2022/07/05 10:20:41;;;;;;;12.88;5.22;;;23.90;99.90;;;;;;5052281;28;20040;-76
2022/07/05 10:23:07;;;;;;;15.68;3.83;;;24.50;99.90;;;;;;5034145;28;20041;-76
2022/07/05 10:25:36;;;;;;;11.70;3.38;;;24.10;99.90;;;;;;5034360;28;20030;-76
2022/07/05 10:28:03;;;;;;;9.98;3.15;;;24.30;99.90;;;;;;5052147;28;20029;-76
2022/07/05 10:30:29;;;;;;;8.85;2.83;;;23.30;99.90;;;;;;5051988;28;20100;-76
2022/07/05 10:32:56;;;;;;;6.32;2.53;;;22.90;99.90;;;;;;5034959;28;20029;-75
2022/07/05 10:35:22;;;;;;;9.85;2.50;;;22.50;99.90;;;;;;5038135;28;20024;-76
2022/07/05 10:37:49;;;;;;;14.00;3.53;;;22.10;99.90;;;;;;5037926;28;20021;-76
2022/07/05 10:40:16;;;;;;;9.57;3.35;;;21.90;99.90;;;;;;5055804;28;20079;-75
2022/07/05 10:42:54;;;;;;;11.20;3.00;;;22.00;99.90;;;;;;5055889;28;20040;-76
2022/07/05 10:45:39;;;;;;;7.47;2.58;;;22.10;99.90;;;;;;5055815;28;20436;-75
2022/07/05 10:48:24;;;;;;;6.40;2.13;;;22.10;99.90;;;;;;5055671;28;20025;-76
2022/07/05 10:50:49;;;;;;;5.18;2.67;;;21.60;99.90;;;;;;5055664;28;20037;-76
2022/07/05 10:53:17;;;;;;;4.20;1.70;;;21.40;99.90;;;;;;5055321;28;20029;-76
2022/07/05 10:55:51;;;;;;;7.50;2.10;;;21.40;99.90;;;;;;5055792;28;20025;-76
2022/07/05 10:58:18;;;;;;;4.95;1.92;;;22.10;99.90;;;;;;5055488;28;20017;-76
2022/07/05 11:00:46;;;;;;;6.28;1.90;;;21.80;99.90;;;;;;5037633;28;20029;-75
2022/07/05 11:03:48;;;;;;;7.15;1.70;;;21.90;99.90;;;;;;5055300;28;20036;-76
2022/07/05 11:06:24;;;;;;;;;;;22.00;99.90;;;;;;5024088;28;20152;-76
2022/07/05 11:09:08;;;;;;;11.23;1.88;;;22.30;99.90;;;;;;5043851;28;19955;-76
2022/07/05 11:11:45;;;;;;;4.38;1.52;;;22.50;99.90;;;;;;5055263;28;20037;-77
2022/07/05 11:14:20;;;;;;;6.28;1.50;;;23.10;99.90;;;;;;5055250;28;20041;-76
2022/07/05 11:16:48;;;;;;;7.03;1.80;;;23.20;99.90;;;;;;5055104;28;20040;-76
2022/07/05 11:19:20;;;;;;;11.52;1.80;;;22.30;99.90;;;;;;5055051;28;20067;-75
2022/07/05 11:22:07;;;;;;;5.97;1.65;;;21.60;99.90;;;;;;5054592;28;20392;-75
2022/07/05 11:24:37;;;;;;;11.48;1.92;;;21.50;99.90;;;;;;5037385;28;20029;-75
2022/07/05 11:27:09;;;;;;;6.28;1.40;;;21.40;99.90;;;;;;5055168;28;20029;-76
2022/07/05 11:29:48;;;;;;;6.05;1.42;;;21.90;99.90;;;;;;5037287;28;20033;-75
2022/07/05 11:32:17;;;;;;;3.33;1.20;;;22.30;99.90;;;;;;5037244;28;20029;-76
2022/07/05 11:34:45;;;;;;;5.38;1.52;;;22.70;99.90;;;;;;5054433;28;20027;-76
2022/07/05 11:37:36;;;;;;;5.53;0.98;;;22.90;99.90;;;;;;5054946;28;20388;-76
2022/07/05 11:40:05;;;;;;;7.05;1.98;;;23.00;99.10;;;;;;5055045;28;20025;-76
2022/07/05 11:42:31;;;;;;;2.75;1.00;;;23.00;99.90;;;;;;5054515;28;20167;-76
2022/07/05 11:44:57;;;;;;;8.48;1.80;;;23.60;98.90;;;;;;5054566;28;20442;-76
2022/07/05 11:47:23;;;;;;;5.53;1.60;;;23.50;97.50;;;;;;5036920;28;20033;-76
2022/07/05 11:49:55;;;;;;;7.15;1.42;;;23.80;98.30;;;;;;5054339;28;20017;-76
2022/07/05 11:52:32;;;;;;;3.33;1.10;;;24.00;97.30;;;;;;5054862;28;20087;-76
2022/07/05 11:54:59;;;;;;;5.25;1.20;;;24.50;97.20;;;;;;5036578;28;20029;-77
2022/07/05 11:57:25;;;;;;;4.30;1.55;;;23.60;97.00;;;;;;5020266;28;20431;-76
2022/07/05 11:59:52;;;;;;;7.22;1.17;;;23.50;97.70;;;;;;5036799;28;20421;-76
2022/07/05 12:02:18;;;;;;;4.05;1.20;;;23.50;98.20;;;;;;5054574;28;20484;-76
2022/07/05 12:04:52;;;;;;;5.72;1.42;;;24.20;97.30;;;;;;5053981;28;20087;-76
2022/07/05 12:07:31;;;;;;;2.38;1.23;;;24.10;96.30;;;;;;5036944;28;20031;-76
2022/07/05 12:12:43;;;;;;;5.85;1.15;;;23.20;97.20;;;;;;5054489;28;20059;-76
2022/07/05 12:15:20;;;;;;;3.75;1.10;;;23.40;96.80;;;;;;5036167;28;20441;-76
2022/07/05 12:17:48;;;;;;;6.82;1.52;;;23.30;97.00;;;;;;5036400;28;20400;-75
2022/07/05 12:20:20;;;;;;;5.55;1.00;;;23.50;96.70;;;;;;5035644;28;20044;-75
2022/07/05 12:22:46;;;;;;;2.53;1.00;;;23.50;95.80;;;;;;5054200;28;20045;-76
2022/07/05 12:25:23;;;;;;;6.15;1.15;;;23.20;96.20;;;;;;5054139;28;20017;-76
2022/07/05 12:27:50;;;;;;;5.20;1.30;;;23.30;97.40;;;;;;5054144;28;20032;-78
2022/07/05 12:30:17;;;;;;;6.80;1.25;;;23.00;97.30;;;;;;5053792;28;20048;-76
2022/07/05 12:33:01;;;;;;;5.00;1.65;;;23.30;97.00;;;;;;5035759;28;20476;-75
2022/07/05 12:35:36;;;;;;;4.38;1.13;;;22.80;97.00;;;;;;5053921;28;20104;-76
2022/07/05 12:38:10;;;;;;;2.83;1.17;;;22.70;97.50;;;;;;5053812;28;20381;-76
2022/07/05 12:40:38;;;;;;;12.52;1.70;;;22.70;97.70;;;;;;5035986;28;20040;-75
2022/07/05 12:43:11;;;;;;;5.07;1.13;;;22.80;97.00;;;;;;5035942;28;20033;-76
2022/07/05 12:45:39;;;;;;;5.90;1.42;;;23.00;97.00;;;;;;5053862;28;20021;-77
2022/07/05 12:48:07;;;;;;;5.70;1.00;;;23.40;97.00;;;;;;5053200;28;20021;-75
2022/07/05 12:50:52;;;;;;;9.55;1.10;;;24.10;96.60;;;;;;5053233;28;20033;-75
2022/07/05 12:58:57;;;;;;;7.82;1.30;;;25.10;94.30;;;;;;5053541;28;20021;-76